Date,TemperatureHighF,TemperatureAvgF,TemperatureLowF,DewpointHighF,DewpointAvgF,DewpointLowF,HumidityHigh,HumidityAvg,HumidityLow,PressureMaxIn,PressureMinIn,WindSpeedMaxMPH,WindSpeedAvgMPH,GustSpeedMaxMPH,PrecipitationSumIn
2013-1-1,55.9,53.9,51.0,50.1,46.9,43.5,85,77,71,30.16,29.95,7,1,11,0.01
2013-1-2,53.9,50.5,43.9,50.4,46.1,38.4,88,85,78,30.19,29.89,7,1,13,0.18
2013-1-3,44.1,41.6,36.0,40.5,36.8,30.7,87,83,77,30.26,30.12,8,1,11,0.10
2013-1-4,53.4,39.7,29.7,33.7,29.8,26.0,88,70,37,30.33,30.20,12,0,13,0.00
2013-1-5,52.8,38.7,27.5,33.6,28.4,22.9,86,68,33,30.39,30.28,7,0,13,0.00
2013-1-6,50.0,45.9,38.6,43.9,39.8,33.6,87,80,67,30.29,30.07,5,0,6,0.02
2013-1-7,54.0,45.8,36.2,42.2,36.1,31.4,87,70,45,30.42,30.14,13,2,17,0.00
2013-1-8,60.6,47.2,35.3,50.3,40.5,29.7,85,78,67,30.43,30.34,7,0,10,0.00
2013-1-9,68.2,56.2,45.1,55.2,49.1,40.9,89,78,59,30.41,30.34,6,0,10,0.00
2013-1-10,63.2,56.7,50.7,52.0,46.4,37.1,88,70,51,30.49,30.40,12,2,19,0.00
2013-1-11,70.7,59.8,48.1,66.3,54.8,39.9,88,83,70,30.41,30.16,7,0,12,0.28
2013-1-12,77.5,65.9,59.5,64.2,59.1,55.1,90,80,54,30.18,30.09,12,1,13,0.01
2013-1-13,75.5,63.2,55.6,62.7,56.7,52.1,90,80,62,30.17,30.09,11,0,12,0.01
2013-1-14,77.1,64.3,55.4,64.7,57.7,51.9,90,80,56,30.19,30.11,14,1,16,0.01
2013-1-15,75.0,60.5,54.9,64.5,55.6,50.9,90,84,63,30.17,30.07,8,1,13,0.02
2013-1-16,77.5,65.5,56.6,65.2,58.4,51.9,90,79,57,30.07,29.95,12,1,23,0.00
2013-1-17,78.1,61.0,42.5,62.8,54.7,39.2,89,81,54,29.99,29.73,17,2,22,1.68
2013-1-18,51.7,42.6,36.6,39.1,31.7,26.2,88,68,39,30.52,29.97,19,3,22,0.01
2013-1-19,61.3,43.3,32.2,41.9,32.1,24.8,84,66,41,30.50,30.20,7,0,8,0.00
2013-1-20,67.5,50.8,41.1,45.3,37.2,30.1,88,65,25,30.20,30.00,13,1,19,0.01
2013-1-21,64.5,49.2,34.7,45.6,38.1,30.4,87,67,41,30.07,29.90,8,0,12,0.00
2013-1-22,50.4,41.8,30.5,34.2,18.7,10.3,64,41,22,30.26,29.95,12,1,18,0.00
2013-1-23,46.1,33.7,25.3,23.1,11.9,2.1,71,43,20,30.39,30.14,7,1,13,0.00
2013-1-24,48.2,39.1,26.6,37.7,21.3,5.0,83,51,31,30.51,30.00,22,4,31,0.00
2013-1-25,37.8,30.3,21.7,30.6,20.1,5.7,86,67,41,30.52,30.12,12,1,13,0.08
2013-1-26,49.8,37.6,29.7,35.3,29.7,25.5,85,74,55,30.38,30.12,7,1,11,0.00
2013-1-27,45.3,35.1,27.2,29.7,26.1,23.5,93,71,48,30.56,30.38,12,1,16,0.01
2013-1-28,58.2,45.2,32.3,47.3,37.8,24.1,84,75,66,30.51,30.27,5,0,7,0.00
2013-1-29,76.7,60.0,47.8,59.7,52.5,43.1,89,78,49,30.27,30.13,8,1,18,0.01
2013-1-30,75.0,65.0,54.0,62.2,58.5,49.3,89,80,62,30.15,29.61,16,2,24,0.00
2013-1-31,67.7,52.8,43.8,62.7,34.9,22.0,85,53,27,30.09,29.53,23,6,32,0.13
2013-2-1,55.4,43.6,27.1,29.5,18.9,-2.5,60,39,11,30.38,30.04,22,4,34,0.00
2013-2-2,49.2,35.9,22.2,39.5,22.5,11.2,81,59,47,30.42,30.05,7,0,14,0.00
2013-2-3,56.3,44.9,35.5,39.4,31.7,24.5,84,63,30,30.04,29.86,17,1,26,0.00
2013-2-4,49.6,39.5,28.2,34.0,27.7,22.9,85,65,35,30.16,29.99,6,0,8,0.00
2013-2-5,68.0,51.5,37.1,45.3,37.5,31.0,87,63,26,30.06,29.90,17,1,20,0.00
2013-2-6,68.5,52.7,43.8,48.8,41.5,36.4,88,69,31,30.24,29.99,8,1,12,0.00
2013-2-7,59.8,51.2,40.6,52.2,46.0,36.7,92,83,66,30.26,29.78,18,4,28,1.62
2013-2-8,60.8,54.3,47.3,53.4,46.2,37.2,89,75,56,30.01,29.55,16,4,23,0.64
2013-2-9,56.4,44.8,33.6,36.6,27.8,19.8,78,54,24,30.37,30.01,18,2,22,0.00
2013-2-10,54.8,43.9,31.0,49.0,36.1,23.2,85,74,56,30.48,30.25,10,1,14,0.00
2013-2-11,66.4,61.3,53.5,60.4,56.3,48.8,87,84,77,30.31,29.96,17,2,26,0.13
2013-2-12,66.1,57.7,51.7,57.1,49.3,37.5,88,75,36,30.09,29.93,10,1,17,0.32
2013-2-13,60.9,53.2,47.6,56.9,48.7,43.6,90,85,72,29.99,29.65,23,2,23,0.65
2013-2-14,53.4,47.2,40.2,46.1,38.1,33.9,84,71,53,30.09,29.81,8,1,13,0.00
2013-2-15,59.5,45.6,34.4,40.7,35.4,30.6,93,70,36,30.10,29.96,11,0,12,0.00
2013-2-16,52.4,40.9,34.8,41.0,35.2,30.8,88,80,63,29.96,29.72,12,2,23,0.25
2013-2-17,42.2,35.0,29.8,31.0,18.4,7.5,86,54,25,30.29,29.89,20,3,28,0.02
2013-2-18,50.9,36.3,23.5,26.3,21.2,14.2,81,57,30,30.45,30.29,8,0,11,0.00
2013-2-19,62.1,42.4,32.6,53.8,37.6,26.2,89,83,68,30.30,30.05,6,0,17,0.00
2013-2-20,50.9,45.9,38.4,32.3,30.4,25.3,71,55,37,30.12,30.04,2,0,6,0.00
2013-2-21,60.7,43.7,31.4,36.0,28.2,19.5,81,58,22,30.24,30.09,11,1,13,0.00
2013-2-22,51.4,45.9,40.6,48.0,36.8,25.2,88,71,54,30.32,30.05,12,2,19,0.27
2013-2-23,53.4,47.4,44.4,49.9,44.2,41.1,89,89,87,30.05,29.82,7,1,11,0.59
2013-2-24,66.0,53.5,46.7,50.2,45.1,42.8,90,76,44,29.97,29.76,11,1,16,0.02
2013-2-25,46.4,43.1,38.0,39.9,33.6,29.6,85,70,54,30.18,29.99,18,6,18,0.00
2013-2-26,65.5,56.1,43.0,62.5,51.7,33.5,90,85,69,30.07,29.60,16,3,19,1.34
2013-2-27,62.8,53.8,47.9,55.7,43.0,38.4,83,68,44,29.83,29.64,22,2,25,0.00
2013-2-28,59.5,49.0,38.2,42.9,36.0,31.0,83,63,38,29.85,29.70,16,2,25,0.00
2013-3-1,57.1,45.2,35.9,31.9,29.6,27.0,78,57,32,29.91,29.80,12,1,16,0.00
2013-3-2,52.4,41.3,32.4,31.7,28.6,25.5,85,63,38,29.91,29.80,11,1,16,0.00
2013-3-3,50.7,40.1,32.4,31.9,23.6,19.9,79,54,30,29.96,29.83,13,2,22,0.00
2013-3-4,52.2,39.1,29.3,24.2,18.7,12.5,70,47,21,30.12,29.96,19,2,25,0.00
2013-3-5,68.1,50.7,32.4,53.5,34.9,23.9,81,57,27,30.12,29.63,14,1,25,0.11
2013-3-6,59.9,50.3,42.8,54.3,32.9,22.1,83,53,32,29.97,29.53,28,7,36,0.00
2013-3-7,58.6,46.7,35.7,31.9,29.1,27.4,72,52,32,30.18,29.96,17,2,25,0.00
2013-3-8,57.5,45.0,33.9,29.3,25.8,21.4,71,50,25,30.24,30.10,18,2,23,0.00
2013-3-9,64.9,48.1,35.7,38.8,31.5,26.7,80,55,29,30.29,30.22,12,2,18,0.00
2013-3-10,63.1,48.7,33.6,44.6,30.5,9.2,88,57,13,30.32,30.24,8,1,17,0.00
2013-3-11,71.8,57.9,46.9,54.6,49.7,42.9,89,75,50,30.25,29.96,12,1,13,0.00
2013-3-12,70.2,62.1,57.1,61.9,56.9,52.8,89,83,69,29.96,29.76,12,1,20,0.78
2013-3-13,63.5,53.7,43.9,52.8,34.5,23.3,86,52,22,30.06,29.88,18,2,19,0.01
2013-3-14,54.9,44.1,34.4,28.9,21.7,16.6,67,43,22,30.24,30.06,17,3,22,0.00
2013-3-15,62.2,47.1,31.3,40.8,28.3,15.2,81,53,19,30.21,29.98,14,1,19,0.00
2013-3-16,80.6,64.3,53.5,48.5,45.3,40.4,65,52,28,29.99,29.75,20,4,26,0.00
2013-3-17,72.1,58.2,49.9,51.8,47.1,43.7,80,68,43,30.12,29.87,20,4,24,0.00
2013-3-18,65.5,54.0,47.6,51.6,46.5,41.3,86,76,59,30.13,29.87,8,1,14,0.00
2013-3-19,71.4,58.9,50.0,53.4,47.1,35.8,88,68,31,29.97,29.74,13,2,20,0.44
2013-3-20,61.2,50.2,41.3,36.6,25.1,9.9,71,40,13,30.11,29.81,14,1,16,0.00
2013-3-21,55.3,44.4,34.3,33.0,23.7,9.4,84,50,17,29.96,29.69,17,2,26,0.00
2013-3-22,53.1,40.3,29.4,30.8,19.1,10.5,68,44,20,30.10,29.96,10,1,14,0.00
2013-3-23,57.9,44.7,34.0,39.1,34.0,28.3,85,67,40,30.05,29.91,4,0,8,0.02
2013-3-24,57.7,48.6,41.9,54.2,44.5,36.6,89,86,75,29.92,29.40,20,3,34,1.01
2013-3-25,54.7,47.3,42.6,41.2,34.1,24.1,88,63,36,29.84,29.51,26,4,30,0.01
2013-3-26,53.7,43.7,34.6,31.4,26.6,23.5,71,52,32,30.10,29.84,16,2,22,0.00
2013-3-27,58.0,46.4,35.4,31.2,25.1,19.9,73,46,23,30.21,30.10,17,2,24,0.00
2013-3-28,59.2,45.5,31.7,30.8,24.4,20.2,73,47,22,30.26,30.14,17,2,20,0.00
2013-3-29,62.0,47.9,32.1,37.4,29.3,22.3,81,52,22,30.33,30.20,14,1,17,0.00
2013-3-30,62.9,53.1,46.3,46.3,41.8,37.4,84,67,41,30.26,30.13,8,1,13,0.04
2013-3-31,73.7,60.3,47.1,55.4,50.8,41.1,88,72,49,30.13,29.86,22,2,24,0.06
2013-4-1,74.4,64.3,57.9,59.6,55.2,49.4,87,74,46,29.91,29.81,13,2,22,0.07
2013-4-2,62.9,54.2,45.4,51.2,38.4,27.6,85,57,30,30.14,29.91,16,3,18,0.00
2013-4-3,58.7,50.8,44.9,43.6,36.8,27.3,84,61,31,30.27,30.10,12,2,19,0.00
2013-4-4,58.3,51.2,47.4,55.1,45.0,37.4,89,80,63,30.28,29.77,18,4,28,1.56
2013-4-5,58.7,49.9,42.9,55.5,44.3,39.9,89,82,64,30.02,29.77,13,2,18,0.01
2013-4-6,64.4,51.6,39.3,46.1,39.8,34.7,89,67,38,30.28,30.02,17,2,18,0.00
2013-4-7,71.2,55.2,38.0,55.5,45.7,33.4,88,71,55,30.28,30.16,8,0,13,0.00
2013-4-8,79.8,64.2,50.9,60.8,54.1,46.9,89,72,48,30.20,30.12,13,1,17,0.00
2013-4-9,82.1,67.9,56.8,63.5,58.0,51.8,89,72,50,30.23,30.11,14,1,14,0.00
2013-4-10,85.0,71.4,60.6,62.1,58.8,55.4,88,67,40,30.16,30.03,13,2,17,0.01
2013-4-11,83.9,71.1,61.4,67.3,62.5,56.5,89,75,50,30.03,29.88,16,1,19,0.00
2013-4-12,79.7,70.2,66.6,71.1,65.1,61.3,89,84,70,29.89,29.70,16,2,24,2.21
2013-4-13,70.1,63.1,52.5,64.3,52.6,43.7,88,70,44,30.03,29.75,13,1,22,0.01
2013-4-14,76.0,62.6,47.8,57.7,50.4,43.8,89,67,40,30.11,30.02,5,0,8,0.00
2013-4-15,70.4,65.0,58.8,60.4,57.8,54.3,88,78,66,30.19,29.95,13,1,23,0.77
2013-4-16,77.6,66.1,57.9,63.6,58.1,53.9,93,76,59,30.27,30.17,8,1,17,0.01
2013-4-17,81.4,68.1,55.4,64.8,58.4,51.3,89,73,51,30.24,30.14,4,0,11,0.00
2013-4-18,80.7,68.8,56.9,64.4,60.6,52.9,89,76,53,30.19,30.08,8,0,13,0.04
2013-4-19,79.2,71.8,67.8,70.6,66.1,63.4,89,83,72,30.08,29.88,12,1,20,0.79
2013-4-20,67.8,58.1,49.6,63.9,48.7,40.7,88,72,50,30.25,29.88,13,2,19,0.58
2013-4-21,63.9,54.0,43.3,46.7,41.5,35.9,87,64,48,30.43,30.25,20,5,30,0.00
2013-4-22,61.9,52.4,44.1,49.5,43.9,35.4,85,73,62,30.39,30.16,17,5,24,0.00
2013-4-23,70.1,57.8,51.0,52.0,49.2,47.0,87,75,49,30.19,30.10,11,2,18,0.00
2013-4-24,76.7,63.1,47.8,60.8,54.0,44.1,90,74,49,30.19,30.06,18,1,20,0.01
2013-4-25,75.6,64.8,55.7,60.7,57.0,49.6,84,76,54,30.26,30.06,13,2,20,0.04
2013-4-26,72.7,59.3,45.0,50.3,45.4,37.9,87,63,32,30.39,30.25,17,1,17,0.00
2013-4-27,72.3,62.0,52.1,52.0,45.1,33.1,85,58,25,30.37,30.27,16,2,19,0.00
2013-4-28,73.7,65.5,60.2,56.8,51.8,48.5,76,62,42,30.28,30.10,12,2,16,0.00
2013-4-29,72.6,65.7,63.0,64.4,59.7,56.4,88,81,71,30.10,29.98,6,0,8,1.45
2013-4-30,72.3,65.5,60.4,63.0,59.3,56.6,89,81,65,30.11,29.97,8,1,14,0.05
2013-5-1,74.0,64.0,58.5,61.9,58.1,54.1,88,82,61,30.23,30.09,11,2,16,0.09
2013-5-2,71.0,63.9,58.9,61.8,57.9,52.5,88,81,69,30.25,30.18,16,3,22,0.03
2013-5-3,65.9,60.2,55.0,57.9,51.9,43.9,87,75,59,30.19,30.12,16,4,25,0.04
2013-5-4,68.8,59.5,52.0,56.5,51.6,45.7,85,76,62,30.12,30.00,17,4,28,0.00
2013-5-5,69.1,62.2,54.4,61.3,56.3,50.0,87,81,72,30.02,29.92,28,4,28,0.03
2013-5-6,78.0,68.1,59.4,65.4,59.7,53.3,88,76,52,29.94,29.84,6,0,11,0.34
2013-5-7,74.9,63.2,53.5,55.9,50.7,45.4,88,66,38,29.97,29.86,8,1,17,0.01
2013-5-8,78.2,66.6,53.5,59.4,53.2,47.9,89,65,36,30.03,29.94,12,1,14,0.00
2013-5-9,85.5,73.5,62.1,63.7,57.7,52.1,83,60,32,30.08,29.97,11,1,17,0.00
2013-5-10,87.6,74.5,61.6,66.4,60.8,56.7,87,65,39,30.09,30.00,8,1,17,0.00
2013-5-11,85.6,75.9,70.1,69.7,64.0,57.3,83,68,41,30.03,29.84,13,2,18,0.00
2013-5-12,83.6,74.5,65.5,64.8,57.2,44.5,81,58,28,29.97,29.79,12,2,18,0.00
2013-5-13,73.8,63.5,51.6,47.4,38.7,31.1,60,42,21,30.13,29.97,17,2,20,0.00
2013-5-14,73.7,60.6,45.2,45.2,38.4,29.8,74,47,21,30.25,30.13,11,1,17,0.00
2013-5-15,86.0,70.5,54.2,58.7,53.9,45.0,86,58,37,30.14,29.96,13,2,22,0.00
2013-5-16,92.7,78.0,67.0,63.9,60.3,54.2,75,57,28,30.01,29.93,12,2,20,0.00
2013-5-17,92.9,79.0,68.0,66.5,61.5,54.3,80,57,28,30.10,30.00,11,1,17,0.00
2013-5-18,87.5,75.6,65.9,69.1,64.5,58.7,86,70,50,30.17,30.10,6,0,11,0.00
2013-5-19,86.0,74.6,66.4,69.5,65.7,62.1,88,75,52,30.16,30.09,8,0,12,0.00
2013-5-20,82.3,74.0,70.0,69.7,67.2,64.8,87,80,62,30.16,30.06,8,0,14,0.28
2013-5-21,85.2,74.7,69.5,71.4,67.3,64.6,89,79,59,30.08,29.99,7,0,16,0.01
2013-5-22,86.4,76.6,67.4,72.0,67.9,63.4,89,76,57,30.05,29.97,7,1,17,0.13
2013-5-23,84.4,75.9,70.1,72.0,68.2,66.0,88,78,61,29.99,29.84,8,0,12,0.27
2013-5-24,82.1,71.4,57.8,67.7,55.7,37.2,86,61,26,30.16,29.78,19,2,24,0.00
2013-5-25,78.4,62.7,46.9,48.5,39.4,31.2,74,46,20,30.28,30.13,12,1,14,0.00
2013-5-26,75.5,64.1,54.4,53.5,49.4,45.4,84,61,37,30.25,30.15,7,0,10,0.00
2013-5-27,82.5,71.4,62.3,59.3,51.7,49.6,75,51,33,30.28,30.20,8,0,12,0.00
2013-5-28,86.6,73.3,58.9,67.2,60.5,53.8,89,67,44,30.27,30.20,7,0,12,0.00
2013-5-29,87.2,75.0,63.6,68.9,62.7,59.3,89,68,42,30.27,30.19,8,1,14,0.00
2013-5-30,87.5,76.1,62.8,71.2,66.1,58.2,89,72,55,30.28,30.20,8,1,14,0.00
2013-5-31,88.3,77.6,66.6,71.4,67.7,62.3,89,73,54,30.24,30.14,7,0,11,0.00
2013-6-1,89.3,78.0,66.5,70.6,66.2,62.2,89,69,48,30.18,30.08,7,0,11,0.00
2013-6-2,89.2,78.3,67.2,70.3,67.7,62.7,89,71,51,30.11,29.96,12,1,13,0.00
2013-6-3,83.0,74.2,68.9,74.4,69.2,64.3,89,85,73,29.98,29.84,7,0,13,1.07
2013-6-4,83.0,74.4,68.4,71.9,67.9,65.0,90,81,64,30.08,29.91,8,1,13,0.00
2013-6-5,81.5,75.0,70.7,67.2,65.6,61.1,83,73,52,30.10,30.02,14,3,19,0.00
2013-6-6,81.1,76.3,73.7,72.8,70.2,67.1,87,81,71,30.04,29.84,6,0,12,0.38
2013-6-7,81.0,77.1,72.9,74.0,70.9,68.3,89,82,69,29.85,29.57,20,3,25,1.59
2013-6-8,90.6,81.4,75.7,74.4,71.5,70.2,87,73,53,30.10,29.85,13,2,18,0.10
2013-6-9,88.1,78.9,73.3,76.3,72.3,68.9,88,81,65,30.16,30.09,5,0,11,0.23
2013-6-10,86.1,78.2,71.5,74.5,71.1,65.9,89,79,64,30.15,29.98,18,1,20,0.04
2013-6-11,88.0,78.8,72.7,72.2,69.9,67.6,88,75,54,30.01,29.89,16,2,17,0.01
2013-6-12,94.9,83.1,70.3,74.0,69.2,62.5,89,66,36,29.99,29.88,11,1,14,0.00
2013-6-13,97.2,86.6,75.5,76.7,73.6,65.6,86,67,44,29.89,29.65,22,2,24,0.00
2013-6-14,84.6,75.7,67.2,67.7,60.5,55.4,87,62,38,30.02,29.69,14,2,20,0.42
2013-6-15,87.2,74.6,60.2,63.8,54.9,47.6,88,55,26,30.12,30.02,11,0,12,0.00
2013-6-16,87.7,76.4,65.2,65.8,61.5,58.9,87,62,39,30.17,30.06,8,1,18,0.00
2013-6-17,87.0,77.1,67.4,71.5,66.9,61.5,87,72,52,30.09,29.98,11,1,14,0.00
2013-6-18,89.8,80.1,72.6,74.7,70.8,67.0,88,74,55,30.01,29.81,16,2,18,0.05
2013-6-19,78.1,73.7,71.5,73.2,68.7,64.6,88,84,77,30.09,29.85,8,1,17,1.15
2013-6-20,83.4,74.1,65.1,67.2,62.4,55.8,87,69,45,30.19,30.07,16,2,18,0.00
2013-6-21,84.3,73.3,63.2,71.7,64.8,56.3,88,75,61,30.19,30.13,11,2,20,0.06
2013-6-22,81.7,75.8,70.8,75.6,70.6,67.1,90,84,73,30.17,30.10,10,1,19,1.07
2013-6-23,84.8,77.4,72.3,76.2,71.7,68.2,89,83,71,30.23,30.15,5,0,10,0.62
2013-6-24,85.0,76.5,74.0,76.9,71.6,69.8,89,85,74,30.24,30.13,6,0,13,0.66
2013-6-25,90.4,79.4,73.5,77.6,71.5,66.3,89,78,53,30.16,30.03,14,1,17,0.01
2013-6-26,91.2,80.4,71.0,75.4,71.2,65.5,87,75,53,30.05,29.95,11,2,22,0.57
2013-6-27,88.5,78.2,69.4,77.9,71.4,65.5,90,80,64,29.98,29.76,13,1,22,1.51
2013-6-28,90.0,82.0,72.4,76.7,74.4,68.6,89,79,63,29.82,29.64,14,2,18,0.05
2013-6-29,84.5,79.2,74.2,74.2,72.1,68.8,87,79,69,29.80,29.64,20,2,22,0.05
2013-6-30,84.7,77.6,73.3,75.7,72.5,69.2,90,84,69,29.90,29.76,10,0,17,1.61
2013-7-1,78.6,76.2,73.4,74.0,71.9,69.1,89,87,82,30.07,29.87,7,1,18,0.75
2013-7-2,87.2,80.0,72.7,77.2,73.5,68.9,89,81,70,30.20,30.06,7,1,17,0.03
2013-7-3,88.1,81.4,75.6,77.5,74.2,71.2,89,79,67,30.27,30.17,8,0,19,0.02
2013-7-4,88.1,81.7,75.8,75.5,73.0,71.1,87,76,62,30.28,30.22,6,0,12,0.00
2013-7-5,88.7,81.3,75.6,77.2,73.1,70.5,88,77,63,30.28,30.20,7,0,12,0.02
2013-7-6,89.0,80.0,72.5,75.8,71.2,68.4,89,75,58,30.26,30.16,6,0,11,0.00
2013-7-7,90.2,80.2,70.8,74.3,69.5,66.7,89,71,48,30.21,30.10,11,0,13,0.00
2013-7-8,91.4,79.7,71.4,74.4,70.2,67.0,89,74,56,30.19,30.12,6,0,13,0.00
2013-7-9,91.6,80.6,73.7,74.7,71.0,68.8,88,74,49,30.19,30.10,10,0,13,0.00
2013-7-10,92.4,81.6,73.1,75.1,71.2,67.8,87,72,50,30.14,29.99,12,0,16,0.00
2013-7-11,90.3,80.9,74.6,75.5,72.2,69.4,87,76,58,30.01,29.89,10,0,14,0.05
2013-7-12,78.8,74.0,71.9,71.7,69.9,67.7,90,87,78,29.99,29.88,8,0,17,3.21
2013-7-13,85.2,77.7,72.0,76.8,72.0,68.4,90,83,72,30.16,29.97,11,0,17,0.27
2013-7-14,87.8,80.9,75.1,75.4,73.1,70.3,88,78,65,30.26,30.16,13,1,18,0.00
2013-7-15,88.2,81.5,75.3,75.3,72.9,69.8,88,76,59,30.28,30.23,12,1,13,0.00
2013-7-16,93.7,82.3,71.8,75.8,71.1,67.6,89,71,49,30.27,30.17,7,0,8,0.00
2013-7-17,90.7,81.9,75.8,76.8,72.1,69.9,84,73,57,30.20,30.10,12,0,14,0.00
2013-7-18,93.8,83.0,72.5,75.5,71.5,67.6,89,70,43,30.14,30.06,5,0,11,0.00
2013-7-19,91.1,82.1,74.0,78.0,72.5,69.5,88,74,55,30.14,30.02,12,1,16,0.25
2013-7-20,91.3,81.9,77.2,73.6,71.0,68.9,83,70,50,30.08,29.97,13,2,22,0.00
2013-7-21,85.5,79.5,75.0,75.8,71.5,67.8,84,77,65,30.04,29.93,12,1,18,0.04
2013-7-22,91.4,81.9,75.4,75.7,72.8,70.9,87,75,54,29.97,29.86,12,1,13,0.00
2013-7-23,90.5,81.3,76.5,74.5,72.0,70.3,83,74,55,29.90,29.75,16,2,18,0.00
2013-7-24,91.4,81.6,75.5,76.7,72.5,70.1,86,74,56,29.81,29.75,7,1,16,0.02
2013-7-25,91.0,80.8,71.7,72.8,70.0,67.7,88,71,50,29.99,29.76,11,1,16,0.00
2013-7-26,87.6,78.1,69.0,70.8,67.9,64.6,87,72,54,30.08,29.99,7,0,11,0.00
2013-7-27,91.1,79.5,68.6,73.8,70.0,64.3,89,74,55,30.05,29.94,6,0,12,0.00
2013-7-28,90.4,80.7,73.7,75.0,71.9,67.0,89,76,54,30.02,29.89,8,0,13,0.00
2013-7-29,92.4,77.7,72.3,76.8,71.2,67.3,88,81,52,30.15,30.00,12,0,14,1.62
2013-7-30,87.6,77.7,71.1,74.6,70.8,67.4,90,80,61,30.19,30.11,7,0,11,0.38
2013-7-31,86.0,78.2,72.2,75.2,71.5,68.4,89,80,66,30.14,30.02,7,0,11,0.01
2013-8-1,86.0,76.8,72.3,75.4,71.5,68.3,89,84,68,30.02,29.90,8,0,12,0.84
2013-8-2,89.7,81.1,74.5,77.5,73.3,70.4,89,78,62,30.03,29.92,8,0,14,0.02
2013-8-3,91.3,82.3,75.6,77.4,73.8,71.3,88,76,58,30.05,29.92,7,0,14,0.00
2013-8-4,92.2,80.6,71.2,77.3,70.7,63.7,88,73,50,30.02,29.87,12,1,17,0.31
2013-8-5,87.0,75.7,64.5,68.4,62.3,58.5,87,65,41,30.08,29.99,13,0,13,0.00
2013-8-6,85.4,76.0,66.3,69.2,64.3,59.7,83,68,52,30.07,29.99,5,0,8,0.00
2013-8-7,86.5,78.0,67.7,72.1,68.5,63.0,88,74,58,30.09,30.02,11,1,12,0.00
2013-8-8,90.6,80.7,72.8,76.4,72.5,68.4,89,77,59,30.06,30.00,5,0,8,0.00
2013-8-9,92.6,81.9,75.3,77.2,73.1,71.0,89,76,53,30.09,30.02,17,2,17,0.02
2013-8-10,93.9,84.5,76.6,77.8,73.8,71.3,88,72,53,30.11,30.03,12,1,14,0.00
2013-8-11,96.6,83.0,76.2,77.4,74.0,70.6,87,76,47,30.12,30.02,16,1,18,1.19
2013-8-12,96.8,83.6,75.2,76.6,73.3,70.0,86,73,45,30.06,29.93,16,2,20,0.37
2013-8-13,93.7,84.2,75.3,77.7,75.1,70.8,88,75,56,29.95,29.79,17,1,18,0.01
2013-8-14,81.7,74.8,68.1,75.5,69.3,61.0,89,83,73,30.04,29.80,11,1,18,1.43
2013-8-15,70.0,66.3,63.7,65.0,61.6,60.0,90,85,78,30.10,30.02,10,1,16,0.83
2013-8-16,74.6,69.8,65.1,68.4,65.5,61.1,89,86,80,30.11,30.03,8,0,10,0.11
2013-8-17,79.8,73.1,67.7,74.3,69.2,64.0,90,88,80,30.13,30.03,6,1,14,1.84
2013-8-18,89.0,78.5,70.9,77.0,71.7,67.5,90,80,60,30.19,30.11,6,0,7,0.01
2013-8-19,83.0,77.1,74.1,75.1,72.1,70.0,89,85,75,30.17,30.06,8,0,12,0.14
2013-8-20,86.1,77.5,72.1,77.1,72.3,68.3,90,84,71,30.17,30.08,7,0,12,0.16
2013-8-21,90.4,80.7,72.1,78.2,73.3,68.7,90,79,60,30.21,30.10,5,0,8,0.01
2013-8-22,88.2,76.9,71.6,75.4,70.5,67.4,89,81,65,30.14,30.01,7,0,8,0.51
2013-8-23,92.7,80.5,72.1,75.0,71.1,68.3,90,75,49,30.03,29.91,7,1,17,0.25
2013-8-24,83.2,75.1,68.7,69.1,65.5,62.2,88,73,53,30.24,29.99,13,2,18,0.02
2013-8-25,81.9,73.0,63.7,65.1,62.0,59.0,85,70,51,30.31,30.23,16,2,22,0.00
2013-8-26,86.3,73.0,61.4,68.0,62.0,56.8,86,70,43,30.28,30.12,7,0,8,0.00
2013-8-27,87.9,74.7,63.8,66.5,62.5,59.5,88,68,40,30.13,29.98,7,0,12,0.00
2013-8-28,91.5,80.1,70.7,73.0,68.6,63.0,80,69,50,30.02,29.91,11,1,12,0.00
2013-8-29,91.4,81.2,74.1,76.5,71.4,67.1,84,73,57,29.96,29.85,13,1,17,0.13
2013-8-30,85.1,76.0,68.6,71.3,68.3,64.7,88,78,57,30.02,29.95,8,1,13,0.00
2013-8-31,91.5,78.8,68.2,75.8,70.5,64.2,89,77,57,29.98,29.89,6,0,12,0.01
2013-9-1,93.3,82.0,74.4,77.2,72.6,70.1,89,75,49,29.94,29.83,11,1,14,0.00
2013-9-2,92.0,83.4,78.5,78.5,74.5,72.9,85,75,58,29.90,29.80,13,1,19,0.01
2013-9-3,91.1,80.3,71.5,76.1,71.6,64.7,84,75,59,29.94,29.81,8,1,20,0.00
2013-9-4,88.6,78.3,69.6,73.3,69.3,65.2,88,75,53,30.06,29.93,7,0,11,0.00
2013-9-5,89.5,79.7,72.5,76.4,72.5,68.1,89,79,62,30.07,30.00,5,0,8,0.01
2013-9-6,88.8,76.8,66.2,72.5,67.8,62.0,87,75,50,30.09,30.02,7,1,16,0.00
2013-9-7,86.6,74.0,64.2,65.3,60.5,52.7,84,65,32,30.09,29.98,10,1,16,0.00
2013-9-8,90.6,75.0,62.3,71.0,64.7,58.1,88,72,45,30.00,29.88,6,0,12,0.00
2013-9-9,88.6,77.4,68.5,72.8,68.1,64.1,88,74,56,30.15,29.98,7,1,12,0.00
2013-9-10,89.7,77.9,71.3,72.3,67.3,64.4,83,72,47,30.21,30.14,13,0,13,0.00
2013-9-11,86.1,75.9,68.2,72.1,67.1,64.2,88,75,51,30.20,30.08,6,0,11,0.00
2013-9-12,77.3,73.4,69.7,68.1,66.6,64.6,85,79,72,30.09,29.83,6,0,6,0.00
2013-9-13,90.6,79.8,72.1,73.2,68.7,62.8,80,70,45,29.83,29.73,13,1,13,0.00
2013-9-14,81.5,73.2,65.6,63.9,61.8,57.0,83,69,51,30.09,29.80,13,2,17,0.00
2013-9-15,82.3,73.1,64.1,68.0,64.5,59.6,87,75,59,30.20,30.09,12,1,18,0.00
2013-9-16,87.4,75.5,68.2,74.2,68.7,64.0,89,80,57,30.14,30.02,12,0,16,0.07
2013-9-17,79.6,70.3,62.5,64.8,59.3,53.0,85,69,48,30.25,30.11,12,2,20,0.00
2013-9-18,79.8,65.9,55.4,61.6,55.6,49.8,82,70,49,30.24,30.13,8,1,13,0.00
2013-9-19,81.1,68.6,58.1,57.9,54.9,48.7,86,64,34,30.17,30.08,8,0,14,0.00
2013-9-20,74.1,68.0,59.8,63.4,59.3,54.4,87,74,58,30.09,29.96,6,0,8,0.00
2013-9-21,80.7,72.3,67.4,72.7,67.1,62.5,89,84,71,29.96,29.74,5,0,11,0.57
2013-9-22,75.9,72.0,67.4,70.7,66.9,62.4,88,84,79,29.85,29.64,12,1,18,0.54
2013-9-23,77.5,67.1,59.0,62.4,55.1,52.1,85,67,42,30.06,29.85,12,1,20,0.00
2013-9-24,76.4,64.4,53.3,57.2,53.3,48.6,87,69,45,30.10,29.95,10,0,13,0.00
2013-9-25,74.3,65.3,55.6,61.1,56.8,51.4,89,75,60,29.96,29.84,13,1,13,0.00
2013-9-26,79.7,70.0,64.7,60.4,58.4,57.0,82,67,49,29.97,29.84,12,1,14,0.03
2013-9-27,77.7,66.7,58.9,60.9,56.0,52.8,88,70,46,30.12,29.96,14,2,20,0.00
2013-9-28,77.0,68.4,62.0,59.8,57.1,54.8,81,68,50,30.15,30.08,14,2,20,0.00
2013-9-29,78.0,65.7,57.6,62.3,57.4,53.8,88,76,51,30.11,29.99,8,1,16,0.00
2013-9-30,80.2,66.6,57.4,56.9,52.9,47.1,87,66,32,30.07,29.97,10,1,14,0.01
2013-10-1,81.7,65.6,52.5,58.2,53.8,48.4,88,69,39,30.12,30.03,7,0,16,0.00
2013-10-2,88.3,70.0,57.1,63.2,57.9,53.0,89,69,37,30.13,30.04,5,0,8,0.00
2013-10-3,86.1,73.1,65.1,68.4,63.4,59.0,89,73,47,30.15,30.09,6,0,8,0.00
2013-10-4,87.4,73.3,63.2,69.3,64.3,59.3,89,75,44,30.14,30.07,4,0,8,0.01
2013-10-5,71.7,67.9,67.6,65.9,62.8,62.6,84,84,82,30.11,30.07,0,0,0,0.00
2013-10-6,84.4,72.5,66.0,73.0,67.1,61.8,89,84,65,30.07,29.96,6,0,12,0.07
2013-10-7,82.0,76.4,72.9,72.1,70.4,68.6,88,82,69,29.96,29.84,6,0,13,0.22
2013-10-8,72.9,63.7,58.1,69.1,60.1,54.9,89,88,84,30.08,29.86,17,4,22,1.20
2013-10-9,63.4,60.5,58.4,58.5,56.5,54.8,90,87,83,30.05,29.94,19,5,24,0.03
2013-10-10,61.0,58.9,56.6,57.1,55.1,53.4,89,87,84,29.95,29.90,18,3,23,0.18
2013-10-11,71.2,64.9,60.9,61.7,59.5,57.1,89,83,71,29.96,29.88,12,1,14,0.01
2013-10-12,68.3,65.2,62.8,62.1,60.3,58.6,87,84,77,30.04,29.93,8,0,14,0.00
2013-10-13,75.1,69.3,66.1,66.1,64.1,62.1,89,84,73,30.11,30.02,11,1,14,0.01
2013-10-14,74.9,69.6,64.8,65.3,63.4,58.8,88,81,71,30.13,30.06,17,3,18,0.00
2013-10-15,71.1,65.1,61.3,62.3,59.6,56.8,87,82,73,30.11,29.99,14,2,17,0.00
2013-10-16,74.4,68.3,64.2,64.5,62.3,58.9,88,82,70,30.02,29.94,7,0,8,0.00
2013-10-17,81.1,68.7,59.5,66.6,61.1,55.6,89,78,55,29.98,29.87,5,0,10,0.00
2013-10-18,77.7,70.3,66.5,67.1,64.9,62.6,88,83,68,29.99,29.89,8,0,12,0.06
2013-10-19,75.3,70.4,66.5,70.1,66.5,62.8,90,87,82,29.95,29.84,5,0,11,0.23
2013-10-20,69.8,63.9,56.7,64.0,54.4,49.5,86,72,50,30.09,29.88,11,1,17,0.00
2013-10-21,71.1,61.5,52.1,54.8,51.8,47.8,87,72,49,30.13,30.00,6,0,11,0.00
2013-10-22,67.6,62.1,57.1,58.7,54.6,50.5,87,77,65,30.01,29.84,2,0,5,0.02
2013-10-23,73.0,62.0,53.7,58.5,51.0,37.9,89,70,35,29.97,29.68,18,2,23,0.23
2013-10-24,63.5,51.4,41.6,40.4,36.1,31.3,80,58,31,30.17,29.97,11,1,14,0.00
2013-10-25,60.9,49.6,39.5,41.6,35.0,29.2,85,60,31,30.35,30.15,14,1,18,0.00
2013-10-26,65.5,47.1,34.1,40.3,34.6,29.2,84,65,32,30.34,30.12,6,0,14,0.00
2013-10-27,69.7,53.1,40.7,46.9,41.4,36.2,87,68,36,30.15,30.07,4,0,7,0.00
2013-10-28,71.9,57.6,46.4,58.6,49.8,42.1,89,76,52,30.25,30.14,1,0,5,0.00
2013-10-29,75.0,60.9,50.3,59.3,52.8,46.6,89,76,54,30.32,30.23,6,0,8,0.00
2013-10-30,76.4,61.6,51.0,60.8,54.1,47.3,90,78,55,30.31,30.19,5,0,7,0.01
2013-10-31,79.0,65.8,54.3,67.8,59.6,50.5,90,81,54,30.23,30.00,7,0,17,0.00
2013-11-1,79.0,73.5,68.2,68.9,66.6,63.6,89,79,69,30.00,29.75,18,2,25,0.13
2013-11-2,75.7,65.4,58.1,67.8,59.5,49.1,89,82,63,29.91,29.69,12,1,18,1.09
2013-11-3,65.4,54.6,46.0,49.0,41.8,36.6,80,64,35,30.32,29.90,11,1,16,0.00
2013-11-4,61.5,49.7,40.3,43.0,37.8,35.1,83,65,41,30.47,30.32,13,2,18,0.00
2013-11-5,73.0,58.4,42.7,58.6,49.7,36.5,85,74,57,30.45,30.36,18,3,22,0.00
2013-11-6,73.1,63.0,54.8,63.2,57.0,48.6,89,81,70,30.36,30.10,13,2,17,0.08
2013-11-7,72.4,66.2,55.5,64.6,60.8,43.1,90,83,63,30.10,29.90,14,1,17,0.38
2013-11-8,59.3,49.4,39.5,42.5,33.7,28.2,83,57,31,30.31,30.03,13,2,24,0.00
2013-11-9,63.6,49.4,34.2,47.2,40.1,29.9,86,72,47,30.36,30.21,5,0,8,0.00
2013-11-10,69.6,55.9,47.2,49.1,44.1,38.2,87,68,35,30.23,30.09,7,0,13,0.00
2013-11-11,61.4,50.2,41.0,42.9,38.0,32.8,83,64,45,30.31,30.16,8,1,16,0.00
2013-11-12,68.6,50.5,36.6,44.4,36.3,23.4,88,62,32,30.36,30.00,18,3,25,0.00
2013-11-13,47.1,36.6,28.3,28.6,21.4,15.2,83,57,29,30.51,30.33,16,2,23,0.01
2013-11-14,59.1,40.0,25.4,31.8,23.7,15.8,86,59,19,30.51,30.35,6,0,11,0.00
2013-11-15,65.6,52.2,36.1,57.7,45.4,31.4,87,78,56,30.36,30.20,11,0,13,0.00
2013-11-16,73.1,64.1,59.1,63.4,57.9,54.7,90,81,61,30.23,30.16,8,0,12,0.01
2013-11-17,76.4,64.5,54.8,65.4,59.2,51.1,90,83,62,30.20,29.98,5,0,13,0.09
2013-11-18,80.6,71.8,60.3,68.1,64.9,47.2,89,79,62,29.98,29.76,13,2,18,0.00
2013-11-19,60.5,52.8,45.4,46.5,32.5,26.8,69,47,28,30.26,29.90,14,2,22,0.00
2013-11-20,59.3,48.5,39.8,45.0,39.0,32.5,83,70,56,30.37,30.24,13,2,19,0.00
2013-11-21,69.3,56.3,45.6,58.2,50.4,40.7,88,81,65,30.41,30.33,12,1,16,0.04
2013-11-22,74.9,62.7,54.5,63.3,57.1,51.0,90,82,62,30.36,30.11,7,0,7,0.00
2013-11-23,65.1,61.0,51.3,60.7,55.8,40.5,88,83,66,30.11,29.99,6,1,14,0.07
2013-11-24,51.3,38.5,26.7,40.5,15.6,5.4,67,40,21,30.55,30.09,19,3,26,0.00
2013-11-25,44.7,33.8,23.9,29.4,17.2,5.6,74,52,28,30.58,30.33,7,0,12,0.00
2013-11-26,69.3,55.4,35.6,66.2,51.4,28.1,90,86,74,30.33,29.63,12,0,18,1.26
2013-11-27,68.8,54.4,34.7,65.4,49.6,23.8,90,84,63,30.16,29.45,16,3,28,0.94
2013-11-28,46.6,35.5,28.8,27.5,23.1,18.3,83,62,34,30.49,30.16,8,1,20,0.00
2013-11-29,53.6,40.0,29.2,31.9,27.7,24.7,85,64,34,30.58,30.47,8,1,13,0.00
2013-11-30,57.1,44.7,32.2,42.8,35.6,26.2,82,71,57,30.56,30.31,13,1,16,0.00
2013-12-1,56.3,49.8,43.7,48.6,44.0,38.9,86,81,74,30.31,30.00,7,0,7,0.00
2013-12-2,57.3,50.1,42.5,47.6,44.4,37.3,93,81,66,30.00,29.81,4,0,10,0.00
2013-12-3,62.2,49.6,37.8,49.7,42.5,34.3,89,78,54,30.02,29.87,4,0,4,0.00
2013-12-4,70.2,60.3,53.8,64.5,55.6,49.7,90,85,71,30.11,29.99,6,0,11,0.26
2013-12-5,75.3,62.8,52.2,65.9,57.0,48.6,90,82,61,30.17,30.09,8,0,12,0.00
2013-12-6,77.6,71.0,66.3,68.5,65.5,62.5,88,83,69,30.16,30.06,23,2,23,0.00
2013-12-7,71.4,56.8,41.8,66.5,52.4,38.5,89,85,72,30.40,30.08,16,3,18,0.21
2013-12-8,43.9,42.0,40.5,40.0,38.6,37.2,89,88,86,30.39,30.26,13,2,14,0.03
2013-12-9,72.8,55.5,41.9,65.9,51.5,38.9,93,87,73,30.26,30.06,12,0,16,0.01
2013-12-10,71.9,58.3,39.6,64.3,53.4,33.3,90,84,76,30.33,29.87,17,2,25,0.09
2013-12-11,52.4,39.4,28.9,32.9,27.3,21.9,85,65,31,30.48,30.29,8,0,8,0.00
2013-12-12,49.7,38.7,29.3,31.0,26.1,21.3,85,64,33,30.39,30.26,16,2,20,0.01
2013-12-13,53.2,37.1,26.2,31.3,25.2,17.7,92,66,29,30.44,30.30,5,0,7,0.00
2013-12-14,67.9,56.0,36.7,64.4,50.1,31.1,89,81,73,30.31,29.76,16,2,25,0.81
2013-12-15,66.4,55.1,40.7,62.9,49.1,35.0,89,80,67,30.08,29.70,14,2,23,0.07
2013-12-16,58.7,43.9,33.4,42.0,34.5,28.6,85,71,38,30.20,30.08,6,0,11,0.01
2013-12-17,64.2,50.6,38.5,43.5,38.6,34.4,87,66,38,30.18,29.99,16,1,20,0.01
2013-12-18,54.4,44.8,32.4,36.9,28.8,21.6,79,56,29,30.32,30.00,12,1,20,0.00
2013-12-19,63.1,43.4,29.8,38.6,30.8,22.4,88,66,25,30.37,30.27,7,0,10,0.00
2013-12-20,72.0,54.6,41.0,62.1,49.1,35.8,90,82,59,30.28,30.16,4,0,13,0.01
2013-12-21,73.9,62.4,52.7,66.5,57.7,48.9,90,85,73,30.19,30.11,4,0,7,0.01
2013-12-22,78.5,69.8,65.2,68.9,64.7,61.8,90,84,71,30.15,30.09,14,1,20,0.01
2013-12-23,74.1,69.7,58.8,68.4,65.1,54.9,89,86,80,30.13,30.03,8,1,17,0.33
2013-12-24,58.8,47.5,35.7,54.9,40.3,28.6,88,77,55,30.40,30.04,12,2,19,0.29
2013-12-25,46.5,37.1,28.5,30.7,24.7,18.6,75,61,48,30.52,30.35,8,1,14,0.00
2013-12-26,45.5,41.3,37.1,41.3,35.4,30.3,86,80,71,30.35,30.23,11,1,14,0.02
2013-12-27,54.3,42.4,33.8,35.8,31.2,27.6,84,67,36,30.42,30.31,8,1,13,0.00
2013-12-28,61.8,45.4,28.9,46.6,33.9,25.1,87,67,37,30.40,30.12,6,0,8,0.00
2013-12-29,67.9,62.8,52.2,64.1,57.7,46.6,88,83,75,30.12,29.73,14,1,30,0.26
2013-12-30,59.9,50.4,43.4,47.1,43.4,39.8,89,78,56,30.13,29.93,5,0,8,0.01
2013-12-31,56.1,47.3,38.8,44.5,37.4,29.5,87,71,37,30.37,30.09,10,1,16,0.00
2014-1-1,52.3,44.2,35.5,41.9,36.3,31.2,86,75,52,30.42,30.14,7,0,11,0.03
2014-1-2,58.5,50.5,45.8,55.6,47.1,41.5,90,88,84,30.14,29.56,12,1,25,0.93